Time;durP1;ratioP1;P1;durP2;ratioP2;P2;SDS_P1;SDS_P2;PMS_P1;PMS_P2;Temp;Humidity;BMP_temperature;BMP_pressure;BME280_temperature;BME280_humidity;BME280_pressure;Samples;Min_cycle;Max_cycle;Signal;HPM_P1;HPM_P2
2023/03/14 00:01:11;;;;;;;3.10;2.50;;;;;;;9.07;72.92;97424.23;109604;1250;64123;-73
2023/03/14 00:03:37;;;;;;;5.30;2.40;;;;;;;9.01;73.04;97420.42;109660;1250;58922;-73
2023/03/14 00:06:05;;;;;;;4.40;2.40;;;;;;;8.96;73.10;97419.14;109651;1250;59335;-74
2023/03/14 00:08:33;;;;;;;4.70;2.40;;;;;;;8.91;73.19;97415.27;109612;1250;66724;-74
2023/03/14 00:11:12;;;;;;;4.20;2.60;;;;;;;8.87;73.27;97415.28;109618;1250;60000;-74
2023/03/14 00:13:38;;;;;;;4.40;2.80;;;;;;;8.82;73.40;97411.29;109643;1250;65282;-74
2023/03/14 00:16:08;;;;;;;6.50;2.80;;;;;;;8.78;73.57;97412.30;109583;1250;59139;-73
2023/03/14 00:18:35;;;;;;;5.20;2.80;;;;;;;8.77;73.94;97414.02;109641;1250;59624;-73
2023/03/14 00:21:04;;;;;;;16.80;6.60;;;;;;;8.73;73.91;97398.90;109658;1250;67079;-73
2023/03/14 00:23:32;;;;;;;5.70;3.40;;;;;;;8.69;74.04;97386.91;109688;1250;61083;-74
2023/03/14 00:26:05;;;;;;;4.20;2.80;;;;;;;8.69;73.97;97380.72;109596;1250;64717;-74
2023/03/14 00:28:31;;;;;;;5.90;3.20;;;;;;;8.68;73.91;97376.30;109641;1250;59032;-74
2023/03/14 00:30:58;;;;;;;6.70;2.90;;;;;;;8.68;74.08;97370.52;109665;1250;59075;-73
2023/03/14 00:33:25;;;;;;;7.40;3.70;;;;;;;8.72;74.01;97359.00;109431;1250;66888;-73
2023/03/14 00:35:55;;;;;;;5.00;4.50;;;;;;;8.82;73.82;97347.92;109596;1250;60779;-74
2023/03/14 00:38:24;;;;;;;5.10;3.60;;;;;;;8.87;73.79;97324.58;109588;1250;64707;-74
2023/03/14 00:40:52;;;;;;;5.20;2.70;;;;;;;8.90;73.80;97309.51;109676;1250;58969;-74
2023/03/14 00:43:23;;;;;;;3.30;2.90;;;;;;;8.87;73.88;97302.30;109580;1250;59054;-74
2023/03/14 00:45:51;;;;;;;4.90;2.40;;;;;;;8.85;73.96;97298.59;109647;1249;67244;-74
2023/03/14 00:48:19;;;;;;;2.50;2.00;;;;;;;8.85;74.19;97289.87;109661;1250;61130;-74
2023/03/14 00:50:46;;;;;;;3.20;2.10;;;;;;;8.90;74.37;97280.27;109631;1250;65003;-74
2023/03/14 00:53:13;;;;;;;3.30;2.10;;;;;;;8.97;74.33;97281.36;109682;1250;59000;-73
2023/03/14 00:55:42;;;;;;;3.30;1.80;;;;;;;9.10;74.34;97283.27;109658;1250;59179;-73
2023/03/14 00:58:10;;;;;;;2.30;1.90;;;;;;;9.19;74.30;97288.52;109360;1250;67117;-73
2023/03/14 01:00:37;;;;;;;3.10;2.20;;;;;;;9.22;74.23;97283.39;109352;1250;61245;-73
2023/03/14 01:03:04;;;;;;;2.40;2.10;;;;;;;9.27;74.08;97278.91;109636;1250;64864;-74
2023/03/14 01:05:31;;;;;;;2.50;2.30;;;;;;;9.30;74.04;97264.29;109651;1250;59273;-74
2023/03/14 01:07:58;;;;;;;3.90;1.80;;;;;;;9.38;74.16;97251.30;109677;1250;59073;-74
2023/03/14 01:10:25;;;;;;;5.20;2.10;;;;;;;9.48;74.05;97249.54;109633;1250;66661;-74
2023/03/14 01:12:52;;;;;;;2.40;1.80;;;;;;;9.60;73.86;97256.26;109642;1250;60719;-74
2023/03/14 01:15:19;;;;;;;2.70;1.90;;;;;;;9.66;73.68;97262.09;109681;1250;65405;-73
2023/03/14 01:17:46;;;;;;;4.30;2.30;;;;;;;9.68;73.66;97265.77;109652;1250;58955;-74
2023/03/14 01:20:14;;;;;;;3.40;2.20;;;;;;;9.72;73.54;97257.49;109615;1250;59017;-74
2023/03/14 01:22:42;;;;;;;3.70;2.30;;;;;;;9.76;73.59;97255.55;109615;1250;66129;-74
2023/03/14 01:25:11;;;;;;;2.60;2.20;;;;;;;9.76;73.51;97254.27;109592;1251;60004;-74
2023/03/14 01:27:38;;;;;;;3.90;2.20;;;;;;;9.75;73.39;97249.64;109619;1250;64816;-73
2023/03/14 01:30:25;;;;;;;4.60;2.20;;;;;;;9.73;73.46;97244.26;109597;1250;59040;-74
2023/03/14 01:32:52;;;;;;;2.60;1.90;;;;;;;9.71;73.45;97235.40;109036;1256;59097;-74
2023/03/14 01:35:18;;;;;;;3.90;3.00;;;;;;;9.68;73.46;97234.08;109196;1256;66822;-74
2023/03/14 01:37:45;;;;;;;3.10;2.80;;;;;;;9.67;73.29;97230.41;109222;1255;60786;-74
2023/03/14 01:40:16;;;;;;;4.10;2.80;;;;;;;9.67;73.26;97230.77;109024;1256;64754;-74
2023/03/14 01:42:55;;;;;;;5.50;3.70;;;;;;;9.66;73.23;97224.87;109176;1255;58981;-74
2023/03/14 01:45:59;;;;;;;3.10;2.50;;;;;;;9.72;73.14;97210.00;109180;1256;59019;-73
2023/03/14 01:48:30;;;;;;;2.60;1.90;;;;;;;9.73;73.11;97193.45;109249;1255;65501;-73
2023/03/14 01:51:00;;;;;;;6.40;2.60;;;;;;;9.70;72.98;97177.90;109215;1256;60720;-74
2023/03/14 01:53:27;;;;;;;3.50;2.20;;;;;;;9.77;72.97;97170.34;109192;1256;64100;-73
2023/03/14 01:55:58;;;;;;;3.40;2.30;;;;;;;9.79;73.02;97163.23;109189;1255;59040;-74
2023/03/14 01:58:27;;;;;;;4.10;2.00;;;;;;;9.78;72.81;97148.05;109195;1256;59015;-74
2023/03/14 02:00:58;;;;;;;3.70;1.90;;;;;;;9.81;72.86;97140.84;109204;1255;66689;-74
2023/03/14 02:03:27;;;;;;;2.40;2.00;;;;;;;9.85;72.90;97133.59;108972;1257;60465;-73
2023/03/14 02:05:59;;;;;;;4.40;1.80;;;;;;;9.92;72.65;97125.85;109043;1257;64739;-75
2023/03/14 02:08:27;;;;;;;3.70;2.20;;;;;;;10.00;72.40;97123.48;109044;1257;59058;-74
2023/03/14 02:10:53;;;;;;;4.00;2.00;;;;;;;10.09;72.15;97124.39;109323;1253;59180;-75
2023/03/14 02:13:21;;;;;;;3.10;2.10;;;;;;;10.16;71.95;97135.65;109433;1253;72361;-75
2023/03/14 02:15:48;;;;;;;4.00;1.80;;;;;;;10.18;71.79;97141.50;109171;1253;60249;-73
2023/03/14 02:18:16;;;;;;;2.20;1.70;;;;;;;10.17;71.77;97145.60;109373;1253;64801;-73
2023/03/14 02:21:01;;;;;;;3.40;2.00;;;;;;;10.17;71.67;97144.20;109459;1253;59160;-72
2023/03/14 02:23:39;;;;;;;3.10;1.70;;;;;;;10.16;71.69;97139.55;109502;1253;59991;-72
2023/03/14 02:26:11;;;;;;;3.10;2.00;;;;;;;10.11;71.49;97142.23;109474;1253;66790;-72
2023/03/14 02:28:38;;;;;;;4.20;2.10;;;;;;;10.11;71.38;97136.79;109095;1252;60858;-73
2023/03/14 02:31:05;;;;;;;3.10;2.00;;;;;;;10.10;71.41;97131.73;109095;1254;63928;-72
2023/03/14 02:33:31;;;;;;;3.30;2.00;;;;;;;10.06;71.51;97123.95;109431;1252;59106;-73
2023/03/14 02:36:01;;;;;;;4.30;2.20;;;;;;;10.01;71.52;97120.55;109479;1253;59255;-73
2023/03/14 02:38:37;;;;;;;2.10;1.70;;;;;;;9.96;71.50;97117.41;109379;1253;64405;-73
2023/03/14 02:41:05;;;;;;;3.80;2.00;;;;;;;9.96;71.56;97119.44;109423;1251;60824;-73
2023/03/14 02:43:31;;;;;;;7.50;2.30;;;;;;;9.95;71.53;97116.45;109573;1252;64669;-73
2023/03/14 02:46:00;;;;;;;3.40;1.90;;;;;;;9.93;71.51;97113.45;109563;1252;58918;-73
2023/03/14 02:48:42;;;;;;;3.40;1.80;;;;;;;9.90;71.63;97112.35;109551;1251;58854;-73
2023/03/14 02:51:08;;;;;;;2.30;1.60;;;;;;;9.91;71.70;97118.09;109524;1251;67168;-73
2023/03/14 02:53:37;;;;;;;2.30;1.70;;;;;;;9.92;71.71;97122.95;109566;1251;60746;-73
2023/03/14 02:56:05;;;;;;;1.80;1.70;;;;;;;9.93;71.72;97124.13;109530;1251;63677;-73
2023/03/14 02:58:31;;;;;;;2.30;1.90;;;;;;;9.89;71.67;97119.21;109553;1251;58989;-73
2023/03/14 03:00:58;;;;;;;3.50;1.70;;;;;;;9.84;71.66;97115.95;109472;1251;59016;-73
2023/03/14 03:03:24;;;;;;;4.30;2.20;;;;;;;9.83;71.61;97119.02;109305;1251;67236;-73
2023/03/14 03:05:53;;;;;;;2.50;2.10;;;;;;;9.81;71.44;97125.20;109581;1251;60696;-73
2023/03/14 03:08:22;;;;;;;5.30;2.40;;;;;;;9.77;71.45;97130.92;109527;1251;65121;-73
2023/03/14 03:10:48;;;;;;;2.50;2.30;;;;;;;9.75;71.47;97135.38;109510;1251;59016;-73
2023/03/14 03:13:16;;;;;;;6.00;2.90;;;;;;;9.75;71.27;97144.75;109524;1251;58924;-73
2023/03/14 03:15:43;;;;;;;4.60;3.70;;;;;;;9.79;71.29;97149.39;109556;1251;67222;-73
2023/03/14 03:18:10;;;;;;;5.70;3.80;;;;;;;9.79;71.11;97163.40;109532;1251;59765;-74
2023/03/14 03:20:37;;;;;;;4.70;3.10;;;;;;;9.77;71.22;97170.17;109492;1251;63642;-73
2023/03/14 03:23:04;;;;;;;9.60;4.70;;;;;;;9.71;71.09;97168.40;109534;1251;59029;-73
2023/03/14 03:25:30;;;;;;;12.30;6.90;;;;;;;9.62;71.15;97175.42;109519;1251;59093;-73
2023/03/14 03:27:57;;;;;;;12.60;8.40;;;;;;;9.54;71.19;97177.77;109504;1251;66958;-73
2023/03/14 03:30:24;;;;;;;15.00;9.60;;;;;;;9.45;71.28;97180.57;109561;1252;59765;-73
2023/03/14 03:32:50;;;;;;;16.00;10.30;;;;;;;9.36;71.42;97174.94;109254;1252;63031;-73
2023/03/14 03:35:17;;;;;;;14.50;9.80;;;;;;;9.29;71.51;97172.95;109506;1251;59025;-73
2023/03/14 03:37:44;;;;;;;18.40;10.60;;;;;;;9.22;71.63;97177.13;109522;1251;58900;-73
2023/03/14 03:40:10;;;;;;;19.20;12.20;;;;;;;9.14;71.77;97175.55;109574;1251;67114;-73
2023/03/14 03:42:37;;;;;;;18.80;13.50;;;;;;;9.05;71.79;97162.86;109543;1251;61153;-73
2023/03/14 03:45:04;;;;;;;17.70;12.70;;;;;;;8.99;72.03;97164.11;109565;1251;65161;-73
2023/03/14 03:47:31;;;;;;;20.00;12.90;;;;;;;8.92;72.23;97173.08;109280;1251;59097;-73
2023/03/14 03:49:58;;;;;;;14.20;8.60;;;;;;;8.85;72.46;97173.75;109268;1252;59113;-73
2023/03/14 03:52:24;;;;;;;9.10;4.80;;;;;;;8.90;72.48;97168.52;109591;1251;65762;-73
2023/03/14 03:54:51;;;;;;;7.00;4.90;;;;;;;9.16;72.16;97173.24;109543;1251;61034;-73
2023/03/14 03:57:18;;;;;;;4.90;3.60;;;;;;;9.43;71.79;97185.98;109501;1253;64767;-73
2023/03/14 03:59:44;;;;;;;23.80;13.10;;;;;;;9.63;71.79;97188.11;109527;1251;59078;-73
2023/03/14 04:02:11;;;;;;;14.80;8.70;;;;;;;9.66;71.53;97187.98;109572;1251;58955;-73
2023/03/14 04:04:38;;;;;;;9.00;4.70;;;;;;;9.64;71.42;97184.31;109577;1251;65673;-73
2023/03/14 04:07:05;;;;;;;24.50;13.70;;;;;;;9.60;71.16;97181.09;109336;1251;61178;-73
2023/03/14 04:09:32;;;;;;;14.60;9.20;;;;;;;9.60;71.08;97187.25;109474;1251;63963;-73
2023/03/14 04:11:58;;;;;;;21.50;12.30;;;;;;;9.59;71.04;97197.13;109557;1251;59016;-73
2023/03/14 04:14:25;;;;;;;14.70;7.40;;;;;;;9.54;71.05;97198.54;109536;1251;58990;-73
2023/03/14 04:16:52;;;;;;;10.10;5.80;;;;;;;9.48;71.08;97201.87;109318;1251;66201;-73
2023/03/14 04:19:18;;;;;;;9.60;5.40;;;;;;;9.44;70.95;97202.77;109567;1251;61282;-73
2023/03/14 04:21:46;;;;;;;8.50;5.20;;;;;;;9.46;70.96;97206.01;109509;1253;65045;-73
2023/03/14 04:24:13;;;;;;;11.00;5.80;;;;;;;9.44;70.85;97202.96;109474;1253;59026;-73
2023/03/14 04:26:40;;;;;;;8.40;5.80;;;;;;;9.43;70.85;97208.89;109512;1251;59015;-73
2023/03/14 04:29:06;;;;;;;12.60;7.30;;;;;;;9.39;70.92;97206.02;109501;1251;67287;-73
2023/03/14 04:31:33;;;;;;;15.20;10.50;;;;;;;9.33;71.04;97205.05;109557;1251;60805;-73
2023/03/14 04:34:00;;;;;;;14.00;10.00;;;;;;;9.22;71.30;97207.23;109524;1251;64754;-73
2023/03/14 04:36:26;;;;;;;16.10;10.40;;;;;;;9.11;71.43;97200.99;109494;1251;58919;-73
2023/03/14 04:38:53;;;;;;;15.50;9.60;;;;;;;9.00;71.69;97203.72;109559;1251;59160;-73
2023/03/14 04:41:20;;;;;;;14.80;9.70;;;;;;;8.90;71.99;97205.01;109598;1251;67259;-73
2023/03/14 04:43:46;;;;;;;14.20;9.90;;;;;;;8.78;72.22;97206.58;109604;1251;60703;-73
2023/03/14 04:46:13;;;;;;;18.20;10.40;;;;;;;8.65;72.62;97206.81;109476;1253;64933;-73
2023/03/14 04:48:39;;;;;;;17.20;12.70;;;;;;;8.53;72.85;97201.83;109531;1251;58937;-73
2023/03/14 04:51:06;;;;;;;14.50;10.70;;;;;;;8.43;73.11;97197.39;109571;1253;58930;-73
2023/03/14 04:53:34;;;;;;;17.50;11.00;;;;;;;8.35;73.47;97181.02;109550;1254;66059;-73
2023/03/14 04:56:01;;;;;;;16.80;10.10;;;;;;;8.31;73.62;97170.80;109515;1251;60235;-73
2023/03/14 04:58:27;;;;;;;17.50;10.20;;;;;;;8.26;73.85;97174.83;109531;1251;64179;-73
2023/03/14 05:00:54;;;;;;;13.50;9.20;;;;;;;8.20;74.19;97184.20;109532;1251;59064;-73
2023/03/14 05:03:21;;;;;;;13.90;10.80;;;;;;;8.10;74.59;97186.57;109562;1251;59009;-73
2023/03/14 05:05:48;;;;;;;14.20;10.00;;;;;;;8.01;74.82;97184.18;109482;1251;66694;-73
2023/03/14 05:08:14;;;;;;;12.50;9.20;;;;;;;7.96;75.26;97179.46;109536;1251;60121;-73
2023/03/14 05:10:41;;;;;;;15.20;9.20;;;;;;;7.96;75.51;97173.11;109515;1251;64905;-73
2023/03/14 05:13:07;;;;;;;14.00;9.70;;;;;;;7.97;75.56;97176.75;109488;1251;58973;-73
2023/03/14 05:15:34;;;;;;;14.30;9.20;;;;;;;7.96;75.69;97171.52;109552;1251;59804;-73
2023/03/14 05:18:01;;;;;;;14.90;9.10;;;;;;;7.94;75.90;97164.41;109532;1252;67052;-73
2023/03/14 05:20:27;;;;;;;13.60;10.80;;;;;;;7.97;75.99;97164.40;109462;1251;60885;-73
2023/03/14 05:22:54;;;;;;;16.20;10.20;;;;;;;8.00;76.29;97157.77;109463;1253;64732;-74
2023/03/14 05:25:21;;;;;;;13.10;8.80;;;;;;;8.05;76.25;97156.25;109576;1251;58996;-73
2023/03/14 05:27:47;;;;;;;13.00;9.90;;;;;;;8.17;76.30;97154.38;109530;1251;60056;-74
2023/03/14 05:30:14;;;;;;;14.00;10.10;;;;;;;8.26;76.36;97143.10;109490;1251;66720;-73
2023/03/14 05:32:40;;;;;;;11.00;8.70;;;;;;;8.34;76.25;97141.54;109552;1251;61169;-74
2023/03/14 05:35:07;;;;;;;12.10;9.20;;;;;;;8.42;76.24;97133.46;109505;1255;65077;-74
2023/03/14 05:37:34;;;;;;;11.80;9.00;;;;;;;8.45;76.44;97128.61;109523;1253;58956;-73
2023/03/14 05:40:01;;;;;;;12.00;10.20;;;;;;;8.46;76.39;97120.04;109335;1251;59057;-73
2023/03/14 05:42:27;;;;;;;13.90;10.50;;;;;;;8.47;76.51;97116.71;109509;1251;65978;-73
2023/03/14 05:44:54;;;;;;;13.80;10.40;;;;;;;8.49;76.83;97108.58;109546;1251;60763;-74
2023/03/14 05:47:21;;;;;;;12.60;9.10;;;;;;;8.50;76.96;97109.19;109488;1252;64785;-73
2023/03/14 05:49:48;;;;;;;9.20;8.20;;;;;;;8.51;76.86;97113.54;109498;1255;59039;-73
2023/03/14 05:52:15;;;;;;;12.70;9.20;;;;;;;8.58;76.81;97111.70;109573;1251;58936;-73
2023/03/14 05:54:41;;;;;;;14.10;9.80;;;;;;;8.65;76.85;97110.65;109548;1251;66859;-73
2023/03/14 05:57:08;;;;;;;15.90;10.80;;;;;;;8.71;76.96;97117.40;109535;1255;59679;-73
2023/03/14 05:59:35;;;;;;;15.00;10.10;;;;;;;8.76;77.07;97108.46;109541;1251;64037;-74
2023/03/14 06:02:01;;;;;;;16.90;8.40;;;;;;;8.81;76.93;97113.90;109547;1251;58994;-74
2023/03/14 06:04:28;;;;;;;13.60;9.80;;;;;;;8.86;76.92;97121.73;109534;1253;59273;-74
2023/03/14 06:06:55;;;;;;;14.40;9.40;;;;;;;8.92;76.74;97123.34;109561;1251;65860;-74
2023/03/14 06:09:23;;;;;;;17.40;10.70;;;;;;;8.98;76.75;97123.50;109586;1251;60756;-74
2023/03/14 06:11:50;;;;;;;17.30;10.80;;;;;;;9.03;77.14;97124.10;109507;1251;63900;-75
2023/03/14 06:14:17;;;;;;;12.70;9.80;;;;;;;9.07;77.47;97130.25;109488;1251;59037;-74
2023/03/14 06:16:44;;;;;;;15.00;10.40;;;;;;;9.12;77.75;97126.11;109500;1251;58886;-73
2023/03/14 06:19:11;;;;;;;18.50;12.00;;;;;;;9.20;77.67;97116.91;109564;1251;66788;-73
2023/03/14 06:21:38;;;;;;;16.90;10.20;;;;;;;9.33;77.75;97108.98;109564;1251;60956;-72
2023/03/14 06:24:05;;;;;;;15.40;9.10;;;;;;;9.47;77.92;97106.59;109572;1251;64098;-72
2023/03/14 06:26:31;;;;;;;11.80;7.90;;;;;;;9.61;77.77;97102.63;109480;1254;59003;-73
2023/03/14 06:29:03;;;;;;;13.70;10.00;;;;;;;9.75;77.58;97093.15;109512;1251;59366;-73
2023/03/14 06:31:30;;;;;;;16.00;9.50;;;;;;;9.89;77.51;97094.73;109294;1251;66118;-73
2023/03/14 06:33:57;;;;;;;16.10;10.20;;;;;;;9.99;77.38;97093.41;109505;1252;60716;-73
2023/03/14 06:36:24;;;;;;;19.50;9.60;;;;;;;10.08;77.02;97091.44;109498;1251;64883;-73
2023/03/14 06:38:50;;;;;;;14.40;8.90;;;;;;;10.19;76.67;97086.55;109463;1251;59068;-73
2023/03/14 06:41:17;;;;;;;13.90;8.70;;;;;;;10.28;76.21;97085.66;109527;1251;59006;-73
2023/03/14 06:43:44;;;;;;;13.20;8.30;;;;;;;10.38;76.13;97078.36;109320;1253;67234;-73
2023/03/14 06:46:11;;;;;;;13.00;8.90;;;;;;;10.47;75.86;97074.66;109307;1251;60738;-73
2023/03/14 06:48:37;;;;;;;12.90;8.30;;;;;;;10.55;75.77;97072.59;109538;1251;63704;-73
2023/03/14 06:51:04;;;;;;;12.30;7.40;;;;;;;10.63;75.50;97069.15;109523;1251;59349;-73
2023/03/14 06:53:31;;;;;;;9.10;6.80;;;;;;;10.72;75.04;97066.66;109312;1251;59069;-73
2023/03/14 06:55:57;;;;;;;10.50;6.80;;;;;;;10.81;75.31;97064.88;109502;1251;66925;-73
2023/03/14 06:58:24;;;;;;;10.00;7.20;;;;;;;10.91;74.92;97066.27;109481;1251;61176;-73
2023/03/14 07:00:52;;;;;;;8.80;6.30;;;;;;;11.01;74.62;97066.32;109534;1251;64678;-72
2023/03/14 07:03:19;;;;;;;11.20;6.40;;;;;;;11.11;74.54;97062.95;109442;1251;58874;-72
2023/03/14 07:05:46;;;;;;;13.70;6.80;;;;;;;11.21;74.85;97068.52;109332;1251;59080;-72
2023/03/14 07:08:12;;;;;;;15.50;8.00;;;;;;;11.30;74.83;97066.80;109520;1251;65608;-72
2023/03/14 07:10:39;;;;;;;9.50;5.50;;;;;;;11.39;74.53;97058.68;109455;1251;59898;-72
2023/03/14 07:13:05;;;;;;;9.80;5.60;;;;;;;11.49;73.74;97051.54;109497;1251;64712;-72
2023/03/14 07:15:32;;;;;;;13.60;6.30;;;;;;;11.58;73.53;97048.78;109501;1251;58947;-72
2023/03/14 07:17:59;;;;;;;10.10;6.60;;;;;;;11.71;73.78;97046.25;109532;1251;59035;-72
2023/03/14 07:20:25;;;;;;;11.20;7.60;;;;;;;11.84;73.52;97042.38;109568;1253;66041;-72
2023/03/14 07:22:52;;;;;;;10.60;5.40;;;;;;;12.00;73.19;97040.63;109516;1251;60776;-72
2023/03/14 07:25:18;;;;;;;12.40;5.60;;;;;;;12.15;73.10;97032.96;109485;1251;64721;-72
2023/03/14 07:27:47;;;;;;;6.90;5.50;;;;;;;12.32;72.98;97025.50;109501;1251;59067;-72
2023/03/14 07:30:14;;;;;;;6.80;4.60;;;;;;;12.49;72.85;97034.00;109503;1251;59015;-72
2023/03/14 07:32:41;;;;;;;10.50;7.30;;;;;;;12.64;72.67;97050.59;109557;1251;73190;-80
2023/03/14 07:35:07;;;;;;;12.00;7.40;;;;;;;12.76;72.29;97065.87;109607;1250;59089;-82
2023/03/14 07:37:34;;;;;;;8.50;4.90;;;;;;;12.86;72.00;97078.19;109534;1251;62843;-84
2023/03/14 07:40:01;;;;;;;7.20;4.90;;;;;;;12.95;71.75;97077.73;109571;1250;59186;-83
2023/03/14 07:42:28;;;;;;;7.90;4.50;;;;;;;13.06;71.62;97076.77;109606;1251;59361;-82
2023/03/14 07:44:55;;;;;;;10.70;5.30;;;;;;;13.20;71.44;97076.83;109604;1251;66120;-82
2023/03/14 07:47:21;;;;;;;8.70;5.20;;;;;;;13.35;71.02;97076.30;109509;1251;60102;-83
2023/03/14 07:49:48;;;;;;;9.20;4.80;;;;;;;13.51;70.59;97076.39;109592;1251;64823;-85
2023/03/14 07:52:14;;;;;;;7.10;4.40;;;;;;;13.64;70.17;97076.19;109603;1251;58993;-87
2023/03/14 07:54:41;;;;;;;9.00;5.00;;;;;;;13.79;69.61;97084.70;109573;1251;59019;-86
2023/03/14 07:57:07;;;;;;;8.00;5.00;;;;;;;13.92;69.04;97088.76;109592;1251;66783;-72
2023/03/14 07:59:34;;;;;;;9.80;4.80;;;;;;;14.05;68.13;97085.54;109758;1250;60781;-72
2023/03/14 08:02:01;;;;;;;11.80;4.80;;;;;;;14.19;68.07;97079.75;109537;1251;63849;-72
2023/03/14 08:04:27;;;;;;;14.20;5.60;;;;;;;14.28;67.86;97078.10;109696;1250;58936;-72
2023/03/14 08:06:54;;;;;;;10.00;5.30;;;;;;;14.34;67.68;97082.64;109717;1251;58985;-72
2023/03/14 08:09:20;;;;;;;10.20;5.00;;;;;;;14.38;67.22;97084.48;109723;1251;66721;-72
2023/03/14 08:11:47;;;;;;;6.50;4.40;;;;;;;14.39;66.00;97082.83;109753;1251;60720;-72
2023/03/14 08:14:14;;;;;;;9.60;4.40;;;;;;;14.40;65.97;97078.02;109391;1249;63782;-72
2023/03/14 08:16:40;;;;;;;8.90;4.00;;;;;;;14.45;65.02;97074.11;109697;1249;59073;-72
2023/03/14 08:19:07;;;;;;;8.20;4.50;;;;;;;14.46;64.09;97066.98;109729;1251;58861;-72
2023/03/14 08:21:34;;;;;;;5.60;3.90;;;;;;;14.48;63.94;97064.45;109746;1251;66732;-72
2023/03/14 08:24:00;;;;;;;5.60;3.60;;;;;;;14.53;64.11;97060.51;109720;1251;61230;-72
2023/03/14 08:26:27;;;;;;;6.00;3.40;;;;;;;14.55;63.51;97060.70;109741;1249;62907;-72
2023/03/14 08:28:53;;;;;;;6.20;4.60;;;;;;;14.51;62.98;97066.60;109707;1251;59075;-72
2023/03/14 08:31:20;;;;;;;6.80;3.80;;;;;;;14.47;62.72;97067.57;109718;1250;59013;-72
2023/03/14 08:33:46;;;;;;;4.10;2.70;;;;;;;14.46;62.50;97063.13;109704;1251;66749;-72
2023/03/14 08:36:13;;;;;;;6.10;4.00;;;;;;;14.44;62.30;97064.36;109745;1250;60794;-72
2023/03/14 08:38:42;;;;;;;8.20;3.30;;;;;;;14.46;62.52;97066.23;109692;1250;65175;-72
2023/03/14 08:41:09;;;;;;;7.70;3.10;;;;;;;14.53;62.68;97068.77;109722;1251;59081;-72
2023/03/14 08:43:36;;;;;;;8.10;3.80;;;;;;;14.60;62.20;97068.71;109777;1251;59075;-72
2023/03/14 08:46:10;;;;;;;4.80;3.70;;;;;;;14.70;62.04;97077.55;109767;1250;66946;-72
2023/03/14 08:48:37;;;;;;;5.60;3.50;;;;;;;14.78;61.44;97082.03;109715;1249;61144;-71
2023/03/14 08:51:10;;;;;;;6.10;3.40;;;;;;;14.86;61.83;97090.92;109732;1250;63765;-72
2023/03/14 08:53:37;;;;;;;7.90;3.50;;;;;;;14.97;61.46;97089.53;109405;1250;59028;-72
2023/03/14 08:56:05;;;;;;;8.20;4.10;;;;;;;15.00;61.11;97087.69;109772;1250;59002;-72
2023/03/14 08:58:33;;;;;;;7.30;3.70;;;;;;;15.04;61.35;97086.33;109413;1254;68156;-72
2023/03/14 09:00:59;;;;;;;7.30;3.30;;;;;;;15.06;60.88;97093.23;109173;1253;60760;-72
2023/03/14 09:03:26;;;;;;;6.20;3.40;;;;;;;15.01;60.70;97098.36;109401;1253;64116;-71
2023/03/14 09:05:53;;;;;;;4.40;3.00;;;;;;;14.94;60.52;97097.50;109401;1253;59525;-72
2023/03/14 09:08:19;;;;;;;6.00;2.90;;;;;;;14.85;60.14;97105.08;109470;1254;58930;-72
2023/03/14 09:10:46;;;;;;;5.00;3.20;;;;;;;14.75;59.44;97109.66;109442;1253;66783;-72
2023/03/14 09:13:12;;;;;;;8.60;5.90;;;;;;;14.68;59.94;97107.58;109157;1253;60685;-72
2023/03/14 09:15:42;;;;;;;4.80;3.80;;;;;;;14.66;60.22;97106.52;109397;1253;64765;-71
2023/03/14 09:18:08;;;;;;;6.70;3.70;;;;;;;14.72;60.78;97115.16;109364;1254;59048;-72
2023/03/14 09:20:35;;;;;;;6.00;3.20;;;;;;;14.84;60.81;97120.95;109415;1254;59050;-71
2023/03/14 09:23:02;;;;;;;5.70;3.40;;;;;;;14.99;60.41;97118.22;109455;1253;66364;-72
2023/03/14 09:25:28;;;;;;;4.50;3.00;;;;;;;15.07;59.68;97120.44;109428;1254;60704;-72
2023/03/14 09:27:55;;;;;;;4.60;3.00;;;;;;;15.09;59.26;97115.27;109398;1254;65420;-72
2023/03/14 09:30:22;;;;;;;5.10;2.90;;;;;;;15.10;59.37;97120.17;109639;1251;59140;-72
2023/03/14 09:32:48;;;;;;;4.50;3.10;;;;;;;15.18;59.64;97119.95;109721;1249;59148;-72
2023/03/14 09:35:15;;;;;;;4.10;3.20;;;;;;;15.31;59.87;97114.95;109777;1250;65892;-72
2023/03/14 09:37:42;;;;;;;6.70;3.60;;;;;;;15.49;59.50;97116.44;109755;1249;61206;-71
2023/03/14 09:40:16;;;;;;;3.30;2.60;;;;;;;15.70;59.00;97120.24;109751;1249;64741;-72
2023/03/14 09:42:44;;;;;;;4.50;3.20;;;;;;;15.85;59.10;97124.25;109726;1250;58943;-72
2023/03/14 09:45:17;;;;;;;4.20;3.10;;;;;;;15.99;59.07;97117.95;109732;1249;59008;-72
2023/03/14 09:47:45;;;;;;;7.10;3.30;;;;;;;16.03;57.99;97125.06;109759;1249;66836;-72
2023/03/14 09:50:15;;;;;;;4.90;3.60;;;;;;;16.03;58.65;97134.13;109743;1251;60792;-72
2023/03/14 09:52:59;;;;;;;6.50;4.70;;;;;;;16.13;58.32;97133.52;109736;1251;65257;-72
2023/03/14 09:55:25;;;;;;;11.50;8.20;;;;;;;16.21;58.14;97137.16;109461;1251;59164;-72
2023/03/14 09:57:58;;;;;;;6.00;4.40;;;;;;;16.37;58.27;97140.09;109791;1249;59050;-72
2023/03/14 10:00:28;;;;;;;6.80;3.10;;;;;;;16.48;57.64;97130.56;109552;1250;67118;-72
2023/03/14 10:03:13;;;;;;;4.70;3.10;;;;;;;16.56;57.80;97133.20;109807;1250;60783;-72
2023/03/14 10:05:41;;;;;;;5.60;3.30;;;;;;;16.66;57.70;97146.44;109764;1249;63798;-72
2023/03/14 10:08:12;;;;;;;5.00;3.10;;;;;;;16.79;58.08;97149.98;109584;1251;58997;-72
2023/03/14 10:10:38;;;;;;;8.50;5.00;;;;;;;16.92;58.06;97149.63;109719;1250;59013;-72
2023/03/14 10:13:21;;;;;;;6.90;3.10;;;;;;;16.97;57.55;97147.79;109728;1249;67074;-72
2023/03/14 10:15:53;;;;;;;4.20;2.90;;;;;;;16.96;56.98;97149.08;109753;1249;60730;-72
2023/03/14 10:18:21;;;;;;;5.90;3.60;;;;;;;16.96;57.37;97160.11;109769;1250;65180;-72
2023/03/14 10:20:50;;;;;;;4.20;3.00;;;;;;;16.97;57.36;97163.52;109709;1249;58988;-72
2023/03/14 10:23:16;;;;;;;5.40;2.80;;;;;;;16.93;57.22;97163.02;109763;1249;59127;-72
2023/03/14 10:26:00;;;;;;;4.20;3.40;;;;;;;16.80;56.97;97161.66;109753;1250;74442;-72
2023/03/14 10:28:30;;;;;;;4.10;2.90;;;;;;;16.59;57.08;97162.44;109723;1249;60336;-72
2023/03/14 10:30:57;;;;;;;7.80;3.10;;;;;;;16.38;56.95;97153.05;109739;1250;65092;-72
2023/03/14 10:33:29;;;;;;;5.60;3.30;;;;;;;16.25;57.33;97147.44;109775;1250;59034;-72
2023/03/14 10:36:01;;;;;;;4.50;3.20;;;;;;;16.17;57.50;97149.71;109737;1250;59203;-72
2023/03/14 10:38:33;;;;;;;4.00;2.70;;;;;;;16.07;57.48;97149.30;109765;1249;66983;-72
2023/03/14 10:41:03;;;;;;;4.90;2.70;;;;;;;15.91;57.90;97140.45;109803;1250;61304;-72
2023/03/14 10:43:35;;;;;;;4.20;2.90;;;;;;;15.73;58.00;97135.17;109729;1249;63714;-72
2023/03/14 10:46:18;;;;;;;6.50;3.10;;;;;;;15.56;58.17;97132.36;109717;1249;58940;-72
2023/03/14 10:48:46;;;;;;;5.50;3.10;;;;;;;15.40;58.79;97130.66;109742;1249;59027;-72
2023/03/14 10:51:27;;;;;;;5.40;3.00;;;;;;;15.24;59.04;97131.73;109672;1249;141569;-72
2023/03/14 10:53:59;;;;;;;4.90;3.00;;;;;;;15.07;59.54;97136.08;109769;1250;61045;-72
2023/03/14 10:56:27;;;;;;;8.30;3.70;;;;;;;14.89;60.05;97136.30;109770;1249;65160;-72
2023/03/14 10:58:57;;;;;;;5.60;3.30;;;;;;;14.74;60.37;97132.29;109522;1250;59027;-72
2023/03/14 11:01:34;;;;;;;;;;;;;;;14.59;60.86;97130.92;109427;1249;59062;-72
2023/03/14 11:04:13;;;;;;;14.30;10.00;;;;;;;14.45;61.07;97131.94;109760;1249;67205;-72
2023/03/14 11:06:49;;;;;;;8.50;7.00;;;;;;;14.33;61.21;97127.45;109834;1250;59815;-72
2023/03/14 11:09:41;;;;;;;5.40;3.70;;;;;;;14.25;61.24;97129.02;109759;1249;65282;-72
2023/03/14 11:12:38;;;;;;;9.10;4.90;;;;;;;14.17;61.71;97129.16;109390;1249;59071;-72
2023/03/14 11:15:22;;;;;;;7.80;4.40;;;;;;;14.08;62.18;97134.55;109769;1249;59127;-72
2023/03/14 11:18:10;;;;;;;6.20;3.70;;;;;;;13.96;62.95;97138.73;109758;1250;66826;-72
2023/03/14 11:20:58;;;;;;;3.90;3.20;;;;;;;13.87;63.38;97145.80;109787;1249;59876;-72
2023/03/14 11:23:32;;;;;;;5.60;3.30;;;;;;;13.83;63.65;97150.70;109367;1250;64047;-72
2023/03/14 11:26:37;;;;;;;5.40;3.40;;;;;;;13.82;63.84;97149.71;109763;1250;58963;-73
2023/03/14 11:29:35;;;;;;;6.30;3.40;;;;;;;13.84;64.11;97151.42;109110;1257;59115;-91
2023/03/14 11:32:11;;;;;;;6.50;3.70;;;;;;;13.88;64.51;97149.38;108573;1264;65793;-79
2023/03/14 11:35:03;;;;;;;7.40;4.60;;;;;;;13.93;64.66;97142.60;108523;1265;60766;-81